Time;durP1;ratioP1;P1;durP2;ratioP2;P2;SDS_P1;SDS_P2;PMS_P1;PMS_P2;Temp;Humidity;BMP_temperature;BMP_pressure;BME280_temperature;BME280_humidity;BME280_pressure;Samples;Min_cycle;Max_cycle;Signal;HPM_P1;HPM_P2
2022/12/03 00:00:16;;;;;;;17.52;11.55;;;;;;;;;;4993451;28;20578;-64
2022/12/03 00:02:42;;;;;;;16.30;11.10;;;;;;;;;;4975504;28;20042;-64
2022/12/03 00:05:09;;;;;;;16.60;11.68;;;;;;;;;;4992569;28;20093;-64
2022/12/03 00:07:36;;;;;;;15.82;11.27;;;;;;;;;;4975156;28;20092;-63
2022/12/03 00:10:03;;;;;;;16.60;10.85;;;;;;;;;;4975328;28;20042;-63
2022/12/03 00:12:29;;;;;;;14.40;11.10;;;;;;;;;;5017865;22;20073;-63
2022/12/03 00:14:56;;;;;;;16.27;11.35;;;;;;;;;;5011983;28;20084;-63
2022/12/03 00:17:22;;;;;;;15.43;10.38;;;;;;;;;;4994426;28;20121;-63
2022/12/03 00:19:49;;;;;;;14.52;10.55;;;;;;;;;;5012378;28;20042;-62
2022/12/03 00:22:15;;;;;;;17.17;11.55;;;;;;;;;;5012609;28;20034;-63
2022/12/03 00:24:41;;;;;;;13.25;9.80;;;;;;;;;;5012587;28;20409;-63
2022/12/03 00:27:08;;;;;;;18.08;10.85;;;;;;;;;;5011870;28;20103;-63
2022/12/03 00:29:34;;;;;;;13.75;10.18;;;;;;;;;;4994773;28;20490;-63
2022/12/03 00:32:01;;;;;;;12.45;10.13;;;;;;;;;;5012177;28;20100;-63
2022/12/03 00:34:27;;;;;;;14.18;9.95;;;;;;;;;;5012086;28;20049;-62
2022/12/03 00:36:53;;;;;;;13.52;9.27;;;;;;;;;;5011644;28;20042;-62
2022/12/03 00:39:20;;;;;;;13.90;10.00;;;;;;;;;;5012149;28;20445;-63
2022/12/03 00:41:46;;;;;;;14.98;9.50;;;;;;;;;;5012075;28;20076;-63
2022/12/03 00:44:13;;;;;;;13.57;8.85;;;;;;;;;;5012404;28;20042;-63
2022/12/03 00:46:39;;;;;;;13.00;9.80;;;;;;;;;;5011256;28;20092;-63
2022/12/03 00:49:06;;;;;;;13.77;9.48;;;;;;;;;;5012141;28;20089;-63
2022/12/03 00:51:34;;;;;;;15.77;10.70;;;;;;;;;;5011720;28;20034;-63
2022/12/03 00:54:01;;;;;;;14.27;9.88;;;;;;;;;;5011822;28;20038;-63
2022/12/03 00:56:27;;;;;;;14.07;10.18;;;;;;;;;;5011157;28;20483;-63
2022/12/03 00:58:53;;;;;;;14.57;10.02;;;;;;;;;;5011872;28;20038;-62
2022/12/03 01:01:20;;;;;;;16.42;11.00;;;;;;;;;;5011945;28;20104;-62
2022/12/03 01:03:46;;;;;;;16.15;10.88;;;;;;;;;;4994360;28;20103;-62
2022/12/03 01:06:13;;;;;;;15.60;11.32;;;;;;;;;;4997847;28;20490;-63
2022/12/03 01:08:39;;;;;;;13.23;10.40;;;;;;;;;;5017357;28;20030;-63
2022/12/03 01:11:36;;;;;;;13.95;9.93;;;;;;;;;;5017452;28;20038;-63
2022/12/03 01:13:55;;;;;;;15.52;11.18;;;;;;;;;;5016071;28;20445;-62
2022/12/03 01:16:21;;;;;;;16.08;10.98;;;;;;;;;;5016662;28;20046;-63
2022/12/03 01:18:51;;;;;;;16.10;11.43;;;;;;;;;;5015690;28;20453;-63
2022/12/03 01:21:18;;;;;;;17.90;12.07;;;;;;;;;;5015814;28;20045;-63
2022/12/03 01:23:44;;;;;;;16.60;12.27;;;;;;;;;;5015195;28;20554;-64
2022/12/03 01:26:10;;;;;;;17.70;11.30;;;;;;;;;;5014927;28;20045;-63
2022/12/03 01:28:37;;;;;;;17.20;11.68;;;;;;;;;;5015883;28;20511;-63
2022/12/03 01:33:49;;;;;;;20.05;12.57;;;;;;;;;;5015035;28;20418;-63
2022/12/03 01:36:15;;;;;;;16.25;11.80;;;;;;;;;;5014479;28;20053;-62
2022/12/03 01:38:42;;;;;;;18.10;12.00;;;;;;;;;;5015156;28;20047;-62
2022/12/03 01:41:09;;;;;;;16.38;11.13;;;;;;;;;;5014966;28;20046;-63
2022/12/03 01:43:37;;;;;;;16.17;11.13;;;;;;;;;;4996975;28;20045;-63
2022/12/03 01:46:04;;;;;;;16.75;12.18;;;;;;;;;;5014199;28;20454;-63
2022/12/03 01:48:31;;;;;;;17.58;12.75;;;;;;;;;;4997213;28;20044;-62
2022/12/03 01:50:58;;;;;;;18.75;12.98;;;;;;;;;;5006106;28;20569;-62
2022/12/03 01:53:24;;;;;;;22.30;13.32;;;;;;;;;;4994979;28;20479;-63
2022/12/03 01:55:51;;;;;;;19.90;12.35;;;;;;;;;;4994363;28;20042;-63
2022/12/03 01:58:19;;;;;;;19.63;12.50;;;;;;;;;;4994838;28;20053;-62
2022/12/03 02:00:46;;;;;;;18.40;13.38;;;;;;;;;;4995035;28;20054;-63
2022/12/03 02:03:21;;;;;;;19.55;13.07;;;;;;;;;;4977175;28;20498;-63
2022/12/03 02:05:47;;;;;;;19.35;12.75;;;;;;;;;;4994392;28;20046;-63
2022/12/03 02:08:25;;;;;;;18.67;12.48;;;;;;;;;;4994812;28;20042;-63
2022/12/03 02:10:51;;;;;;;20.35;12.73;;;;;;;;;;4994926;28;20069;-64
2022/12/03 02:13:18;;;;;;;17.90;12.07;;;;;;;;;;4976991;28;20108;-63
2022/12/03 02:15:44;;;;;;;21.13;12.60;;;;;;;;;;4977053;28;20054;-64
2022/12/03 02:18:11;;;;;;;20.40;12.38;;;;;;;;;;4976538;28;20069;-64
2022/12/03 02:20:42;;;;;;;18.80;13.02;;;;;;;;;;4994743;28;20065;-64
2022/12/03 02:23:12;;;;;;;19.58;12.98;;;;;;;;;;4977060;28;20078;-63
2022/12/03 02:25:38;;;;;;;20.45;13.60;;;;;;;;;;4994131;28;20073;-63
2022/12/03 02:28:06;;;;;;;20.48;12.45;;;;;;;;;;4994871;28;20046;-62
2022/12/03 02:30:33;;;;;;;21.10;13.00;;;;;;;;;;4994752;28;20046;-62
2022/12/03 02:33:00;;;;;;;17.73;12.48;;;;;;;;;;4977232;28;20073;-63
2022/12/03 02:35:29;;;;;;;20.40;13.00;;;;;;;;;;4976777;28;20517;-63
2022/12/03 02:38:02;;;;;;;20.02;12.98;;;;;;;;;;4994307;28;20046;-63
2022/12/03 02:40:29;;;;;;;19.80;12.43;;;;;;;;;;4994387;28;20517;-62
2022/12/03 02:42:58;;;;;;;18.23;12.18;;;;;;;;;;4993886;28;20514;-62
2022/12/03 02:45:29;;;;;;;18.23;12.02;;;;;;;;;;4994123;28;20042;-62
2022/12/03 02:47:57;;;;;;;20.65;12.48;;;;;;;;;;4994697;28;20113;-63
2022/12/03 02:50:27;;;;;;;17.90;12.23;;;;;;;;;;4994754;28;20042;-62
2022/12/03 02:52:54;;;;;;;18.25;12.25;;;;;;;;;;4994361;28;20050;-62
2022/12/03 02:55:21;;;;;;;20.70;12.73;;;;;;;;;;4993956;28;20062;-63
2022/12/03 02:57:49;;;;;;;18.75;12.48;;;;;;;;;;4995256;28;20042;-63
2022/12/03 03:00:18;;;;;;;20.60;13.50;;;;;;;;;;4995793;28;20053;-63
2022/12/03 03:02:46;;;;;;;21.48;13.57;;;;;;;;;;4995352;28;20034;-63
2022/12/03 03:05:13;;;;;;;22.13;13.38;;;;;;;;;;4994181;28;20406;-62
2022/12/03 03:07:40;;;;;;;23.35;13.90;;;;;;;;;;4977041;28;20050;-62
2022/12/03 03:10:10;;;;;;;21.92;14.50;;;;;;;;;;4994621;28;20041;-62
2022/12/03 03:12:36;;;;;;;23.33;14.93;;;;;;;;;;4976673;28;20549;-63
2022/12/03 03:15:05;;;;;;;26.02;15.63;;;;;;;;;;4960397;28;20046;-63
2022/12/03 03:17:32;;;;;;;27.10;15.52;;;;;;;;;;4976482;28;20502;-62
2022/12/03 03:19:59;;;;;;;25.88;15.68;;;;;;;;;;4993396;28;20054;-62
2022/12/03 03:22:32;;;;;;;29.80;15.98;;;;;;;;;;4975885;28;20042;-62
2022/12/03 03:24:59;;;;;;;25.70;15.75;;;;;;;;;;4993168;28;20454;-62
2022/12/03 03:27:26;;;;;;;23.35;14.70;;;;;;;;;;4992970;28;20557;-62
2022/12/03 03:29:53;;;;;;;26.95;15.55;;;;;;;;;;4993072;28;20043;-62
2022/12/03 03:32:19;;;;;;;24.13;15.35;;;;;;;;;;4993242;28;20038;-62
2022/12/03 03:34:46;;;;;;;25.13;15.27;;;;;;;;;;4993229;28;20046;-63
2022/12/03 03:37:12;;;;;;;26.38;15.95;;;;;;;;;;4992715;28;20042;-61
2022/12/03 03:39:39;;;;;;;25.67;15.73;;;;;;;;;;4993729;28;20042;-61
2022/12/03 03:42:05;;;;;;;27.05;15.93;;;;;;;;;;4993089;28;20098;-62
2022/12/03 03:44:32;;;;;;;26.50;15.52;;;;;;;;;;4992850;28;20391;-62
2022/12/03 03:46:58;;;;;;;28.13;15.85;;;;;;;;;;4992440;28;20042;-62
2022/12/03 03:49:25;;;;;;;24.38;15.02;;;;;;;;;;4975350;28;20427;-62
2022/12/03 03:51:51;;;;;;;31.67;16.10;;;;;;;;;;4992731;28;20038;-63
2022/12/03 03:54:18;;;;;;;27.05;16.33;;;;;;;;;;4992949;28;20447;-64
2022/12/03 03:56:45;;;;;;;26.23;16.17;;;;;;;;;;4975005;28;20141;-63
2022/12/03 03:59:12;;;;;;;25.52;15.43;;;;;;;;;;4992723;28;20121;-64
2022/12/03 04:01:38;;;;;;;27.92;16.17;;;;;;;;;;4992890;28;20070;-63
2022/12/03 04:04:10;;;;;;;26.00;15.65;;;;;;;;;;4975932;28;20052;-63
2022/12/03 04:06:36;;;;;;;28.88;16.42;;;;;;;;;;4992636;28;20521;-63
2022/12/03 04:09:02;;;;;;;27.90;16.77;;;;;;;;;;4993260;28;20042;-63
2022/12/03 04:14:14;;;;;;;30.27;16.55;;;;;;;;;;4993109;28;20043;-63
2022/12/03 04:16:40;;;;;;;29.73;16.25;;;;;;;;;;4974888;28;20185;-63
2022/12/03 04:19:07;;;;;;;28.77;17.17;;;;;;;;;;4992705;28;20042;-63
2022/12/03 04:24:19;;;;;;;32.28;17.95;;;;;;;;;;4993133;28;20043;-63
2022/12/03 04:29:30;;;;;;;34.10;17.38;;;;;;;;;;4992779;28;20049;-63
2022/12/03 04:37:27;;;;;;;30.73;17.17;;;;;;;;;;4992691;28;20101;-64
2022/12/03 04:39:53;;;;;;;32.40;16.30;;;;;;;;;;4975081;28;20383;-63
2022/12/03 04:42:20;;;;;;;29.50;16.70;;;;;;;;;;4993163;28;20042;-63
2022/12/03 04:44:46;;;;;;;32.38;16.63;;;;;;;;;;4975074;28;20521;-64
2022/12/03 04:47:19;;;;;;;32.92;18.52;;;;;;;;;;4991868;28;20070;-63
2022/12/03 04:49:47;;;;;;;35.47;18.40;;;;;;;;;;4992645;28;20461;-63
2022/12/03 04:52:15;;;;;;;29.45;17.67;;;;;;;;;;4992363;28;20322;-64
2022/12/03 04:54:42;;;;;;;29.38;16.83;;;;;;;;;;4974861;28;20066;-64
2022/12/03 04:57:08;;;;;;;31.90;17.40;;;;;;;;;;4992156;28;20054;-63
2022/12/03 04:59:35;;;;;;;32.28;17.60;;;;;;;;;;4975881;28;20074;-63
2022/12/03 05:02:02;;;;;;;33.42;18.10;;;;;;;;;;5461861;23;20053;-64
2022/12/03 05:04:29;;;;;;;37.05;18.40;;;;;;;;;;4992657;28;20062;-64
2022/12/03 05:06:55;;;;;;;32.78;18.85;;;;;;;;;;4992266;28;20559;-64
2022/12/03 05:09:22;;;;;;;33.60;18.10;;;;;;;;;;4992542;28;20043;-64
2022/12/03 05:11:48;;;;;;;30.98;17.05;;;;;;;;;;4992659;28;20430;-64
2022/12/03 05:14:15;;;;;;;56.47;30.05;;;;;;;;;;4992503;28;20042;-64
2022/12/03 05:16:41;;;;;;;33.00;18.63;;;;;;;;;;4992551;28;20565;-64
2022/12/03 05:19:08;;;;;;;33.22;17.90;;;;;;;;;;4992650;28;20049;-63
2022/12/03 05:21:35;;;;;;;37.92;18.20;;;;;;;;;;4992446;28;20049;-63
2022/12/03 05:24:01;;;;;;;32.92;16.90;;;;;;;;;;4992514;28;20046;-62
2022/12/03 05:26:28;;;;;;;34.20;18.10;;;;;;;;;;4974452;28;20084;-62
2022/12/03 05:28:54;;;;;;;35.30;18.65;;;;;;;;;;4992291;28;20047;-63
2022/12/03 05:31:21;;;;;;;34.47;17.40;;;;;;;;;;4992441;28;20050;-62
2022/12/03 05:33:48;;;;;;;38.60;18.75;;;;;;;;;;4974975;28;20112;-62
2022/12/03 05:36:17;;;;;;;36.47;18.83;;;;;;;;;;4991839;28;20453;-61
2022/12/03 05:38:44;;;;;;;30.67;17.00;;;;;;;;;;4992469;28;20049;-62
2022/12/03 05:43:55;;;;;;;36.25;19.13;;;;;;;;;;4992255;28;20391;-63
2022/12/03 05:46:22;;;;;;;37.05;18.98;;;;;;;;;;4974168;28;20054;-63
2022/12/03 05:48:48;;;;;;;35.60;17.50;;;;;;;;;;4993723;28;20446;-63
2022/12/03 05:51:15;;;;;;;38.33;19.35;;;;;;;;;;4976440;28;20648;-63
2022/12/03 05:53:41;;;;;;;33.65;18.17;;;;;;;;;;4996926;28;20050;-64
2022/12/03 05:56:07;;;;;;;37.33;19.45;;;;;;;;;;4977711;28;20046;-63
2022/12/03 05:58:34;;;;;;;36.10;18.73;;;;;;;;;;4978080;28;20066;-62
2022/12/03 06:01:00;;;;;;;31.52;18.23;;;;;;;;;;4978142;28;20193;-63
2022/12/03 06:03:27;;;;;;;35.90;18.38;;;;;;;;;;4978112;28;20058;-63
2022/12/03 06:05:53;;;;;;;49.35;25.58;;;;;;;;;;4977625;28;20553;-64
2022/12/03 06:08:20;;;;;;;41.22;19.35;;;;;;;;;;4978137;28;20042;-63
2022/12/03 06:10:46;;;;;;;35.50;17.70;;;;;;;;;;4995746;28;20046;-64
2022/12/03 06:13:13;;;;;;;34.53;18.75;;;;;;;;;;4978112;28;20053;-63
2022/12/03 06:15:39;;;;;;;34.53;17.60;;;;;;;;;;4977572;28;20050;-63
2022/12/03 06:18:09;;;;;;;35.15;17.50;;;;;;;;;;4995574;28;20051;-63
2022/12/03 06:20:36;;;;;;;39.28;19.33;;;;;;;;;;4995361;28;20042;-64
2022/12/03 06:23:02;;;;;;;35.28;18.85;;;;;;;;;;4977951;28;20042;-64
2022/12/03 06:25:29;;;;;;;36.42;18.58;;;;;;;;;;4984730;28;20050;-65
2022/12/03 06:27:55;;;;;;;35.95;18.60;;;;;;;;;;5003873;28;20046;-64
2022/12/03 06:30:22;;;;;;;38.92;20.75;;;;;;;;;;4997886;28;20054;-63
2022/12/03 06:32:48;;;;;;;37.90;20.75;;;;;;;;;;4978471;28;20124;-64
2022/12/03 06:35:15;;;;;;;40.83;20.67;;;;;;;;;;4977281;28;20065;-64
2022/12/03 06:37:41;;;;;;;38.65;20.02;;;;;;;;;;4977936;28;20046;-63
2022/12/03 06:40:08;;;;;;;37.00;19.17;;;;;;;;;;4978030;28;20049;-62
2022/12/03 06:42:34;;;;;;;39.10;19.98;;;;;;;;;;4977388;28;20065;-62
2022/12/03 06:45:01;;;;;;;38.83;19.30;;;;;;;;;;4995081;28;20038;-64
2022/12/03 06:47:28;;;;;;;40.22;19.08;;;;;;;;;;4995286;28;20041;-62
2022/12/03 06:49:54;;;;;;;40.80;20.75;;;;;;;;;;4995371;28;20104;-62
2022/12/03 06:52:21;;;;;;;38.70;20.83;;;;;;;;;;4995640;28;20050;-64
2022/12/03 06:54:47;;;;;;;41.97;20.63;;;;;;;;;;4977355;28;20108;-63
2022/12/03 06:57:13;;;;;;;39.63;21.20;;;;;;;;;;4994206;28;20046;-63
2022/12/03 06:59:40;;;;;;;41.67;20.98;;;;;;;;;;4961741;28;20050;-63
2022/12/03 07:02:06;;;;;;;37.63;20.13;;;;;;;;;;4994591;28;20109;-62
2022/12/03 07:04:33;;;;;;;39.92;20.92;;;;;;;;;;4976863;28;20042;-63
2022/12/03 07:06:59;;;;;;;45.03;22.00;;;;;;;;;;4993941;28;20046;-64
2022/12/03 07:09:26;;;;;;;44.67;22.15;;;;;;;;;;4994687;28;20034;-64
2022/12/03 07:11:52;;;;;;;39.20;20.55;;;;;;;;;;4977061;28;20141;-65
2022/12/03 07:14:19;;;;;;;35.28;20.33;;;;;;;;;;4994321;28;20495;-65
2022/12/03 07:16:46;;;;;;;41.80;22.00;;;;;;;;;;4993646;28;20046;-65
2022/12/03 07:19:12;;;;;;;43.17;20.67;;;;;;;;;;4994128;28;20050;-65
2022/12/03 07:21:39;;;;;;;40.78;21.80;;;;;;;;;;4976715;28;20046;-65
2022/12/03 07:24:06;;;;;;;42.50;21.13;;;;;;;;;;4976967;28;20567;-66
2022/12/03 07:26:32;;;;;;;44.90;21.50;;;;;;;;;;4976134;28;20498;-64
2022/12/03 07:28:59;;;;;;;43.58;21.35;;;;;;;;;;4976740;28;20503;-64
2022/12/03 07:31:25;;;;;;;44.22;21.25;;;;;;;;;;4976495;28;20061;-65
2022/12/03 07:33:52;;;;;;;41.15;20.73;;;;;;;;;;4976660;28;20046;-66
2022/12/03 07:36:19;;;;;;;43.53;21.40;;;;;;;;;;4976431;28;20054;-65
2022/12/03 07:38:45;;;;;;;39.47;20.27;;;;;;;;;;4994026;28;20045;-65
2022/12/03 07:41:14;;;;;;;38.80;21.00;;;;;;;;;;4993904;28;20038;-65
2022/12/03 07:43:40;;;;;;;40.65;20.45;;;;;;;;;;4993765;28;20043;-64
2022/12/03 07:46:07;;;;;;;40.00;20.75;;;;;;;;;;4993277;28;20034;-65
2022/12/03 07:48:33;;;;;;;45.33;23.58;;;;;;;;;;4993790;28;20073;-65
2022/12/03 07:51:00;;;;;;;57.38;26.00;;;;;;;;;;4993803;28;20042;-65
2022/12/03 07:53:26;;;;;;;40.35;20.60;;;;;;;;;;4993545;28;20042;-65
2022/12/03 07:55:53;;;;;;;42.78;23.23;;;;;;;;;;4993127;28;20121;-66
2022/12/03 07:58:19;;;;;;;43.67;21.02;;;;;;;;;;4993589;28;20101;-66
2022/12/03 08:00:46;;;;;;;42.85;22.27;;;;;;;;;;4993492;28;20420;-66
2022/12/03 08:03:12;;;;;;;42.97;20.23;;;;;;;;;;4976015;28;20081;-65
2022/12/03 08:05:39;;;;;;;39.35;21.20;;;;;;;;;;4992742;28;20136;-65
2022/12/03 08:08:05;;;;;;;42.63;21.83;;;;;;;;;;4993422;28;20042;-66
2022/12/03 08:10:32;;;;;;;47.20;23.00;;;;;;;;;;4975810;28;20085;-65
2022/12/03 08:12:58;;;;;;;42.72;22.23;;;;;;;;;;4993171;28;20038;-65
2022/12/03 08:15:26;;;;;;;43.85;21.90;;;;;;;;;;4974611;28;20043;-65
2022/12/03 08:17:59;;;;;;;41.15;21.80;;;;;;;;;;4975951;28;20046;-65
2022/12/03 08:20:37;;;;;;;38.42;20.15;;;;;;;;;;4993094;28;20446;-65
2022/12/03 08:23:30;;;;;;;44.80;22.60;;;;;;;;;;4975916;28;20053;-66
2022/12/03 08:26:00;;;;;;;44.15;22.05;;;;;;;;;;4989684;28;20117;-65
2022/12/03 08:28:27;;;;;;;42.03;20.65;;;;;;;;;;4993210;28;20046;-65
2022/12/03 08:30:59;;;;;;;43.17;21.30;;;;;;;;;;4993109;28;20403;-65
2022/12/03 08:33:27;;;;;;;39.85;21.45;;;;;;;;;;4975910;28;20093;-65
2022/12/03 08:36:13;;;;;;;43.33;21.58;;;;;;;;;;4952259;28;20097;-67
2022/12/03 08:38:39;;;;;;;41.40;21.75;;;;;;;;;;4993154;28;20042;-66
2022/12/03 08:41:14;;;;;;;40.17;21.27;;;;;;;;;;4992896;28;20043;-66
2022/12/03 08:43:43;;;;;;;;;;;;;;;;;;4993444;28;20054;-66
2022/12/03 08:46:13;;;;;;;37.72;20.33;;;;;;;;;;4974962;28;19929;-66
2022/12/03 08:48:39;;;;;;;38.80;20.95;;;;;;;;;;4992756;28;20046;-65
2022/12/03 08:51:18;;;;;;;41.25;20.75;;;;;;;;;;4975287;28;20100;-66
2022/12/03 08:53:46;;;;;;;38.75;20.35;;;;;;;;;;4993004;28;20089;-66
2022/12/03 08:56:21;;;;;;;38.65;20.25;;;;;;;;;;4992247;28;20046;-67
2022/12/03 08:58:51;;;;;;;43.28;22.50;;;;;;;;;;4975302;28;20050;-66
2022/12/03 09:01:38;;;;;;;39.85;20.05;;;;;;;;;;4993102;28;20384;-65
2022/12/03 09:04:14;;;;;;;39.92;20.65;;;;;;;;;;4975662;28;20097;-66
2022/12/03 09:06:41;;;;;;;38.00;20.42;;;;;;;;;;4975312;28;20047;-67
2022/12/03 09:09:07;;;;;;;36.17;19.65;;;;;;;;;;4977310;28;20134;-66
2022/12/03 09:11:33;;;;;;;40.60;20.25;;;;;;;;;;4977141;28;20097;-68
2022/12/03 09:14:00;;;;;;;37.88;19.77;;;;;;;;;;4977424;28;20046;-67
2022/12/03 09:16:27;;;;;;;39.65;19.75;;;;;;;;;;4977014;28;20050;-68
2022/12/03 09:18:53;;;;;;;37.25;19.50;;;;;;;;;;4976975;28;20112;-66
2022/12/03 09:21:20;;;;;;;40.45;20.58;;;;;;;;;;4978566;28;20062;-67
2022/12/03 09:23:46;;;;;;;42.63;20.73;;;;;;;;;;4977950;28;20042;-68
2022/12/03 09:26:13;;;;;;;36.25;19.48;;;;;;;;;;4977511;28;20046;-67
2022/12/03 09:28:40;;;;;;;37.00;20.67;;;;;;;;;;4981498;28;20065;-67
2022/12/03 09:31:07;;;;;;;40.22;19.58;;;;;;;;;;4981325;28;20046;-67
2022/12/03 09:33:33;;;;;;;39.53;20.73;;;;;;;;;;4997683;28;20034;-67
2022/12/03 09:36:00;;;;;;;40.53;20.45;;;;;;;;;;4997780;28;20625;-67
2022/12/03 09:38:26;;;;;;;36.88;18.98;;;;;;;;;;4981714;28;20400;-67
2022/12/03 09:40:53;;;;;;;40.22;20.17;;;;;;;;;;4963937;28;20410;-66
2022/12/03 09:43:20;;;;;;;38.03;19.25;;;;;;;;;;4980118;28;20495;-70
2022/12/03 09:45:47;;;;;;;38.17;20.27;;;;;;;;;;4998547;28;20058;-67
2022/12/03 09:48:15;;;;;;;36.33;19.02;;;;;;;;;;4980106;28;20054;-68
2022/12/03 09:50:42;;;;;;;38.17;19.88;;;;;;;;;;4997740;28;20057;-68
2022/12/03 09:53:12;;;;;;;40.50;20.83;;;;;;;;;;4980690;28;20096;-69
2022/12/03 09:55:39;;;;;;;39.53;20.35;;;;;;;;;;4978981;28;20039;-68
2022/12/03 09:58:10;;;;;;;42.40;20.95;;;;;;;;;;4979008;28;20050;-65
2022/12/03 10:00:36;;;;;;;39.03;20.92;;;;;;;;;;4980543;28;20054;-66
2022/12/03 10:03:04;;;;;;;37.17;21.02;;;;;;;;;;4996631;28;20153;-66
2022/12/03 10:05:32;;;;;;;37.20;20.63;;;;;;;;;;4996296;28;20436;-68
2022/12/03 10:08:09;;;;;;;41.13;21.08;;;;;;;;;;4998749;28;20101;-67
2022/12/03 10:10:37;;;;;;;41.47;22.17;;;;;;;;;;4982754;28;20066;-66
2022/12/03 10:13:04;;;;;;;42.45;21.75;;;;;;;;;;4998168;28;20042;-66
2022/12/03 10:15:31;;;;;;;39.80;20.60;;;;;;;;;;4998591;28;20073;-68
2022/12/03 10:17:57;;;;;;;35.28;19.73;;;;;;;;;;5008171;28;20046;-66
2022/12/03 10:20:24;;;;;;;36.08;19.25;;;;;;;;;;4995841;28;20035;-67
2022/12/03 10:22:51;;;;;;;36.38;19.73;;;;;;;;;;4991748;28;20038;-67
2022/12/03 10:25:19;;;;;;;32.85;18.77;;;;;;;;;;4999435;28;20100;-69
2022/12/03 10:27:59;;;;;;;36.38;19.60;;;;;;;;;;4983506;28;20054;-69
2022/12/03 10:30:27;;;;;;;37.40;19.95;;;;;;;;;;4998275;28;20038;-68
2022/12/03 10:32:55;;;;;;;37.55;20.98;;;;;;;;;;4997410;28;20049;-66
2022/12/03 10:35:36;;;;;;;33.75;18.98;;;;;;;;;;4995994;28;20442;-66
2022/12/03 10:38:03;;;;;;;37.75;20.17;;;;;;;;;;4979562;28;20414;-68
2022/12/03 10:40:34;;;;;;;34.42;19.65;;;;;;;;;;4996875;28;20046;-66
2022/12/03 10:43:14;;;;;;;38.10;20.75;;;;;;;;;;4979147;28;20061;-66
2022/12/03 10:45:41;;;;;;;35.33;19.17;;;;;;;;;;4962517;28;20126;-66
2022/12/03 10:48:18;;;;;;;35.00;19.42;;;;;;;;;;4995041;28;20144;-65
2022/12/03 10:51:02;;;;;;;34.30;18.02;;;;;;;;;;4977504;28;20049;-67
2022/12/03 10:53:29;;;;;;;34.95;19.85;;;;;;;;;;4977701;28;20038;-66
2022/12/03 10:55:58;;;;;;;34.75;18.52;;;;;;;;;;4977206;28;20561;-66
2022/12/03 10:58:26;;;;;;;33.30;18.33;;;;;;;;;;4961785;28;20050;-66
2022/12/03 11:00:53;;;;;;;34.05;18.55;;;;;;;;;;4977269;28;20046;-66
2022/12/03 11:03:24;;;;;;;30.85;18.25;;;;;;;;;;4994608;28;20046;-65
2022/12/03 11:05:52;;;;;;;30.83;17.42;;;;;;;;;;4994149;28;20039;-66
2022/12/03 11:08:18;;;;;;;31.30;17.13;;;;;;;;;;4977208;28;20050;-66
2022/12/03 11:10:54;;;;;;;30.23;17.77;;;;;;;;;;4977212;28;20042;-65
2022/12/03 11:13:28;;;;;;;30.38;17.08;;;;;;;;;;4977319;28;20061;-66
2022/12/03 11:15:55;;;;;;;32.38;17.63;;;;;;;;;;4993754;28;20049;-67
2022/12/03 11:18:34;;;;;;;29.02;16.42;;;;;;;;;;4994172;28;20046;-67
2022/12/03 11:21:01;;;;;;;28.85;17.23;;;;;;;;;;4977139;28;20035;-65
2022/12/03 11:23:42;;;;;;;31.45;17.63;;;;;;;;;;4960806;28;20054;-65
2022/12/03 11:26:29;;;;;;;28.65;16.48;;;;;;;;;;4993530;28;20093;-65
2022/12/03 11:28:56;;;;;;;28.55;15.50;;;;;;;;;;4976420;28;20499;-66
2022/12/03 11:31:42;;;;;;;29.40;16.42;;;;;;;;;;4978709;28;20442;-67
2022/12/03 11:34:15;;;;;;;26.35;15.93;;;;;;;;;;4995710;28;20042;-67
2022/12/03 11:37:00;;;;;;;29.60;16.98;;;;;;;;;;4994571;28;20046;-67
2022/12/03 11:39:46;;;;;;;29.65;16.92;;;;;;;;;;4995104;28;20077;-67
2022/12/03 11:42:24;;;;;;;24.52;14.63;;;;;;;;;;4995457;28;20045;-66
2022/12/03 11:45:20;;;;;;;27.70;16.13;;;;;;;;;;4995991;28;20038;-66
2022/12/03 11:47:59;;;;;;;27.20;15.02;;;;;;;;;;4969580;28;20411;-66
2022/12/03 11:50:28;;;;;;;27.17;16.23;;;;;;;;;;4975918;28;20495;-66
2022/12/03 11:53:13;;;;;;;26.95;15.65;;;;;;;;;;4976558;28;20069;-66
2022/12/03 11:55:47;;;;;;;29.58;15.82;;;;;;;;;;4993346;28;20058;-66
2022/12/03 11:58:29;;;;;;;28.67;16.30;;;;;;;;;;4994009;28;20048;-66
2022/12/03 12:00:58;;;;;;;25.45;15.25;;;;;;;;;;4994014;28;20042;-65
2022/12/03 12:03:29;;;;;;;25.90;15.18;;;;;;;;;;4976319;28;20133;-66
2022/12/03 12:05:58;;;;;;;28.98;15.45;;;;;;;;;;4975928;28;20577;-66
2022/12/03 12:08:25;;;;;;;27.67;16.63;;;;;;;;;;4976122;28;20133;-68
2022/12/03 12:10:51;;;;;;;27.52;15.75;;;;;;;;;;4993383;28;20116;-62
2022/12/03 12:13:24;;;;;;;23.75;13.82;;;;;;;;;;4993225;28;20414;-66
2022/12/03 12:15:50;;;;;;;28.63;16.77;;;;;;;;;;4992752;28;20050;-65
2022/12/03 12:18:36;;;;;;;24.85;14.85;;;;;;;;;;4976072;28;20594;-65
2022/12/03 12:21:21;;;;;;;48.65;27.30;;;;;;;;;;4993098;28;20050;-65
2022/12/03 12:23:47;;;;;;;26.52;15.23;;;;;;;;;;4975977;28;20046;-65
2022/12/03 12:26:14;;;;;;;23.92;15.05;;;;;;;;;;4975362;28;20042;-66
2022/12/03 12:28:40;;;;;;;27.17;15.60;;;;;;;;;;4976138;28;20053;-66
2022/12/03 12:31:10;;;;;;;23.52;14.13;;;;;;;;;;4993519;28;20038;-66
2022/12/03 12:33:37;;;;;;;25.50;15.32;;;;;;;;;;4975795;28;20042;-67
2022/12/03 12:36:06;;;;;;;28.15;16.98;;;;;;;;;;4992863;28;20058;-66
2022/12/03 12:38:42;;;;;;;28.33;15.93;;;;;;;;;;4976814;28;20052;-65
2022/12/03 12:41:09;;;;;;;28.00;16.63;;;;;;;;;;4994807;28;20046;-65
2022/12/03 12:43:38;;;;;;;27.10;15.52;;;;;;;;;;4976060;28;20659;-66
2022/12/03 12:46:10;;;;;;;28.52;16.23;;;;;;;;;;4992654;28;20141;-66
2022/12/03 12:48:58;;;;;;;28.83;15.30;;;;;;;;;;4993045;28;20069;-66
2022/12/03 12:51:25;;;;;;;25.08;14.73;;;;;;;;;;4975502;28;20042;-66
2022/12/03 12:53:52;;;;;;;26.60;15.73;;;;;;;;;;4993593;28;20482;-66
2022/12/03 12:56:23;;;;;;;26.25;15.80;;;;;;;;;;4993240;28;20047;-64
2022/12/03 12:58:49;;;;;;;24.35;14.45;;;;;;;;;;4975553;28;20046;-64
2022/12/03 13:01:19;;;;;;;23.90;14.57;;;;;;;;;;4976448;28;20048;-63
2022/12/03 13:03:49;;;;;;;29.10;16.35;;;;;;;;;;4996866;28;20038;-64
2022/12/03 13:06:15;;;;;;;26.05;16.08;;;;;;;;;;4996195;28;20047;-64
2022/12/03 13:08:43;;;;;;;26.15;15.95;;;;;;;;;;4996851;28;20043;-65
2022/12/03 13:11:16;;;;;;;26.90;16.88;;;;;;;;;;4979414;28;20054;-65
2022/12/03 13:13:42;;;;;;;26.73;16.33;;;;;;;;;;4997089;28;20443;-65
2022/12/03 13:16:26;;;;;;;26.17;16.60;;;;;;;;;;4979344;28;20129;-66
2022/12/03 13:19:00;;;;;;;27.17;16.02;;;;;;;;;;4979340;28;20120;-66
2022/12/03 13:21:36;;;;;;;28.90;16.92;;;;;;;;;;4979152;28;20446;-64
2022/12/03 13:24:22;;;;;;;27.77;17.10;;;;;;;;;;4979043;28;20047;-64
2022/12/03 13:26:49;;;;;;;28.17;16.85;;;;;;;;;;4978231;28;20427;-65
2022/12/03 13:29:17;;;;;;;29.33;16.58;;;;;;;;;;4996440;28;20463;-64
2022/12/03 13:31:57;;;;;;;28.17;17.63;;;;;;;;;;4996450;28;20049;-65
2022/12/03 13:34:25;;;;;;;30.75;17.85;;;;;;;;;;4978614;28;20046;-65
2022/12/03 13:36:52;;;;;;;31.17;17.05;;;;;;;;;;4995693;28;20077;-66
2022/12/03 13:39:30;;;;;;;30.38;17.92;;;;;;;;;;4996344;28;20050;-65
2022/12/03 13:44:47;;;;;;;32.30;18.38;;;;;;;;;;4996107;28;20529;-64
2022/12/03 13:47:16;;;;;;;38.00;20.20;;;;;;;;;;4995714;28;20039;-67
2022/12/03 13:49:45;;;;;;;37.72;20.95;;;;;;;;;;4996053;28;20046;-65
2022/12/03 13:52:14;;;;;;;30.45;18.33;;;;;;;;;;4993053;28;20097;-66
2022/12/03 13:54:41;;;;;;;31.50;18.83;;;;;;;;;;4976258;28;20488;-65
2022/12/03 13:57:07;;;;;;;32.00;18.80;;;;;;;;;;4975592;28;20488;-65
2022/12/03 13:59:33;;;;;;;30.10;16.98;;;;;;;;;;4976574;28;20109;-65
2022/12/03 14:02:00;;;;;;;28.80;17.52;;;;;;;;;;4976385;28;20042;-65
2022/12/03 14:04:26;;;;;;;32.78;17.77;;;;;;;;;;4976515;28;20507;-66
2022/12/03 14:06:53;;;;;;;30.88;18.70;;;;;;;;;;4976059;28;20558;-65
2022/12/03 14:09:19;;;;;;;31.80;18.33;;;;;;;;;;4976800;28;20043;-66
2022/12/03 14:14:31;;;;;;;32.60;18.48;;;;;;;;;;4997876;28;20058;-65
2022/12/03 14:16:57;;;;;;;68.68;38.10;;;;;;;;;;4984026;28;20495;-66
2022/12/03 14:19:25;;;;;;;30.73;17.67;;;;;;;;;;4977045;28;20093;-65
2022/12/03 14:21:52;;;;;;;28.95;16.95;;;;;;;;;;4976190;28;20098;-65
2022/12/03 14:24:18;;;;;;;29.35;16.60;;;;;;;;;;4976111;28;20534;-64
2022/12/03 14:26:44;;;;;;;29.42;17.45;;;;;;;;;;4975564;28;20043;-64
2022/12/03 14:29:11;;;;;;;32.90;18.70;;;;;;;;;;4976097;28;20043;-64
2022/12/03 14:31:37;;;;;;;31.92;17.48;;;;;;;;;;4958952;28;20043;-66
2022/12/03 14:34:04;;;;;;;30.75;18.13;;;;;;;;;;4975906;28;20055;-64
2022/12/03 14:36:30;;;;;;;29.45;16.80;;;;;;;;;;4957817;28;20562;-64
2022/12/03 14:38:57;;;;;;;30.83;17.23;;;;;;;;;;4975887;28;20043;-64
2022/12/03 14:44:08;;;;;;;32.10;18.10;;;;;;;;;;4976137;28;20046;-64
2022/12/03 14:46:35;;;;;;;32.70;17.50;;;;;;;;;;4957924;28;20097;-64
2022/12/03 14:49:01;;;;;;;33.17;19.40;;;;;;;;;;4958646;28;20511;-64
2022/12/03 14:51:27;;;;;;;31.73;17.70;;;;;;;;;;4975877;28;20042;-66
2022/12/03 14:53:54;;;;;;;31.70;18.70;;;;;;;;;;4975988;28;20051;-64